createdAt,value
2017-09-27T00:00:20.537Z,64.60
2017-09-27T00:01:20.503Z,65.20
2017-09-27T00:02:20.468Z,61.00
2017-09-27T00:03:20.437Z,54.90
2017-09-27T00:04:20.401Z,56.70
2017-09-27T00:05:20.362Z,55.20
2017-09-27T00:06:20.336Z,60.40
2017-09-27T00:07:20.299Z,69.80
2017-09-27T00:08:20.264Z,76.50
2017-09-27T00:09:20.231Z,77.10
2017-09-27T00:10:20.197Z,91.40
2017-09-27T00:11:20.163Z,81.10
2017-09-27T00:12:20.128Z,79.40
2017-09-27T00:13:20.094Z,83.40
2017-09-27T00:14:20.061Z,61.90
2017-09-27T00:15:20.027Z,69.60
2017-09-27T00:16:19.994Z,66.00
2017-09-27T00:17:19.958Z,70.10
2017-09-27T00:18:19.924Z,65.50
2017-09-27T00:19:19.892Z,51.40
2017-09-27T00:20:19.856Z,50.00
2017-09-27T00:21:19.822Z,46.10
2017-09-27T00:22:19.789Z,51.20
2017-09-27T00:23:19.755Z,63.40
2017-09-27T00:24:19.722Z,58.00
2017-09-27T00:25:19.687Z,49.20
2017-09-27T00:26:19.654Z,54.80
2017-09-27T00:27:19.621Z,57.80
2017-09-27T00:28:19.586Z,53.40
2017-09-27T00:29:19.551Z,54.80
2017-09-27T00:30:19.518Z,53.90
2017-09-27T00:31:19.485Z,61.10
2017-09-27T00:32:19.449Z,54.20
2017-09-27T00:33:19.415Z,53.30
2017-09-27T00:34:19.383Z,56.80
2017-09-27T00:35:19.350Z,56.50
2017-09-27T00:36:19.314Z,55.70
2017-09-27T00:37:19.279Z,59.00
2017-09-27T00:38:19.247Z,63.30
2017-09-27T00:39:19.324Z,66.30
2017-09-27T00:40:19.179Z,70.40
2017-09-27T00:41:19.150Z,65.20
2017-09-27T00:42:19.112Z,61.10
2017-09-27T00:43:19.603Z,65.50
2017-09-27T00:44:19.043Z,62.00
2017-09-27T00:45:19.008Z,61.20
2017-09-27T00:46:18.974Z,60.80
2017-09-27T00:47:18.944Z,62.40
2017-09-27T00:48:18.907Z,58.60
2017-09-27T00:49:18.873Z,60.20
2017-09-27T00:50:18.836Z,66.80
2017-09-27T00:51:18.806Z,61.40
2017-09-27T00:52:18.771Z,62.80
2017-09-27T00:53:18.736Z,52.10
2017-09-27T00:54:18.709Z,60.30
2017-09-27T00:55:18.670Z,54.90
2017-09-27T00:56:18.635Z,53.90
2017-09-27T00:57:18.601Z,44.60
2017-09-27T00:58:18.570Z,37.60
2017-09-27T00:59:18.532Z,37.90
2017-09-27T01:00:18.497Z,33.80
2017-09-27T01:01:18.464Z,41.70
2017-09-27T01:02:18.430Z,47.20
2017-09-27T01:03:18.397Z,48.60
2017-09-27T01:04:18.363Z,51.00
2017-09-27T01:05:18.330Z,53.60
2017-09-27T01:06:18.294Z,65.20
2017-09-27T01:07:18.262Z,63.80
2017-09-27T01:08:18.228Z,56.50
2017-09-27T01:09:18.190Z,52.00
2017-09-27T01:10:18.157Z,40.20
2017-09-27T01:11:18.125Z,46.40
2017-09-27T01:12:18.089Z,45.40
2017-09-27T01:13:18.054Z,52.00
2017-09-27T01:14:18.021Z,56.40
2017-09-27T01:15:17.987Z,61.50
2017-09-27T01:16:17.952Z,58.50
2017-09-27T01:17:17.921Z,60.20
2017-09-27T01:18:17.887Z,51.80
2017-09-27T01:19:17.851Z,51.50
2017-09-27T01:20:17.816Z,40.80
2017-09-27T01:21:17.782Z,40.80
2017-09-27T01:22:17.748Z,41.40
2017-09-27T01:23:17.714Z,39.50
2017-09-27T01:24:17.678Z,35.20
2017-09-27T01:25:17.644Z,36.40
2017-09-27T01:26:17.612Z,41.00
2017-09-27T01:27:17.576Z,45.50
2017-09-27T01:28:17.541Z,40.80
2017-09-27T01:29:17.506Z,46.20
2017-09-27T01:30:17.473Z,54.70
2017-09-27T01:31:17.438Z,60.90
2017-09-27T01:32:17.403Z,77.40
2017-09-27T01:33:17.370Z,87.30
2017-09-27T01:34:17.340Z,85.10
2017-09-27T01:35:17.302Z,68.30
2017-09-27T01:36:17.268Z,54.10
2017-09-27T01:37:17.233Z,52.80
2017-09-27T01:38:17.204Z,58.90
2017-09-27T01:39:17.164Z,70.40
2017-09-27T01:40:17.129Z,73.10
2017-09-27T01:41:17.094Z,73.30
2017-09-27T01:42:17.059Z,72.70
2017-09-27T01:43:17.027Z,66.40
2017-09-27T01:44:16.992Z,70.90
2017-09-27T01:45:16.958Z,67.00
2017-09-27T01:46:16.921Z,66.10
2017-09-27T01:47:16.888Z,59.10
2017-09-27T01:48:16.853Z,65.40
2017-09-27T01:49:16.819Z,61.30
2017-09-27T01:50:16.784Z,72.60
2017-09-27T01:51:16.748Z,58.60
2017-09-27T01:52:17.446Z,54.10
2017-09-27T01:53:16.683Z,46.60
2017-09-27T01:54:16.651Z,47.70
2017-09-27T01:55:16.610Z,50.60
2017-09-27T01:56:16.574Z,49.40
2017-09-27T01:57:16.541Z,49.70
2017-09-27T01:58:16.506Z,56.30
2017-09-27T01:59:16.472Z,60.40
2017-09-27T02:00:16.437Z,60.30
2017-09-27T02:01:16.402Z,63.90
2017-09-27T02:02:16.368Z,61.90
2017-09-27T02:03:16.332Z,55.60
2017-09-27T02:04:16.296Z,59.80
2017-09-27T02:05:16.262Z,64.10
2017-09-27T02:06:16.230Z,59.40
2017-09-27T02:07:16.194Z,59.20
2017-09-27T02:08:16.159Z,56.90
2017-09-27T02:09:16.124Z,60.40
2017-09-27T02:10:16.091Z,57.70
2017-09-27T02:11:16.055Z,50.40
2017-09-27T02:12:16.023Z,53.50
2017-09-27T02:13:15.989Z,46.80
2017-09-27T02:14:16.327Z,44.20
2017-09-27T02:15:15.917Z,44.90
2017-09-27T02:16:15.884Z,48.90
2017-09-27T02:17:15.848Z,53.00
2017-09-27T02:18:15.814Z,48.00
2017-09-27T02:19:15.779Z,49.80
2017-09-27T02:20:15.743Z,44.60
2017-09-27T02:21:15.711Z,47.80
2017-09-27T02:22:15.675Z,46.70
2017-09-27T02:23:15.640Z,50.50
2017-09-27T02:24:15.605Z,48.90
2017-09-27T02:25:15.571Z,52.00
2017-09-27T02:26:15.537Z,56.60
2017-09-27T02:27:15.504Z,48.50
2017-09-27T02:28:15.467Z,51.20
2017-09-27T02:29:15.433Z,55.70
2017-09-27T02:30:15.398Z,49.20
2017-09-27T02:31:15.367Z,54.00
2017-09-27T02:32:15.329Z,56.40
2017-09-27T02:33:15.291Z,56.70
2017-09-27T02:34:15.259Z,53.10
2017-09-27T02:35:15.225Z,47.90
2017-09-27T02:36:15.189Z,40.10
2017-09-27T02:37:15.155Z,38.90
2017-09-27T02:38:15.120Z,46.30
2017-09-27T02:39:15.086Z,56.70
2017-09-27T02:40:15.049Z,58.30
2017-09-27T02:41:15.016Z,65.10
2017-09-27T02:42:14.975Z,76.20
2017-09-27T02:43:14.953Z,72.60
2017-09-27T02:44:14.911Z,71.20
2017-09-27T02:45:14.875Z,83.70
2017-09-27T02:46:14.842Z,96.90
2017-09-27T02:47:14.807Z,98.60
2017-09-27T02:48:14.771Z,106.50
2017-09-27T02:49:14.737Z,109.30
2017-09-27T02:50:14.702Z,123.20
2017-09-27T02:51:14.708Z,106.50
2017-09-27T02:52:14.632Z,92.30
2017-09-27T02:53:14.598Z,108.40
2017-09-27T02:54:14.562Z,111.70
2017-09-27T02:55:14.526Z,98.00
2017-09-27T02:56:14.492Z,104.50
2017-09-27T02:57:14.458Z,81.50
2017-09-27T02:58:14.422Z,82.00
2017-09-27T02:59:14.390Z,82.10
2017-09-27T03:00:14.354Z,91.00
2017-09-27T03:01:14.317Z,90.70
2017-09-27T03:02:14.285Z,92.50
2017-09-27T03:03:14.250Z,101.00
2017-09-27T03:04:14.214Z,95.50
2017-09-27T03:05:14.179Z,84.60
2017-09-27T03:06:14.145Z,80.80
2017-09-27T03:07:14.120Z,76.40
2017-09-27T03:08:14.080Z,66.80
2017-09-27T03:09:14.040Z,65.10
2017-09-27T03:10:14.007Z,77.90
2017-09-27T03:11:13.972Z,73.40
2017-09-27T03:12:13.934Z,88.50
2017-09-27T03:13:13.902Z,95.10
2017-09-27T03:14:13.867Z,80.90
2017-09-27T03:15:13.833Z,87.90
2017-09-27T03:16:13.799Z,100.30
2017-09-27T03:17:13.765Z,91.50
2017-09-27T03:18:13.733Z,100.70
2017-09-27T03:19:13.694Z,96.90
2017-09-27T03:20:13.665Z,90.70
2017-09-27T03:21:13.624Z,94.00
2017-09-27T03:22:13.588Z,87.50
2017-09-27T03:23:13.555Z,82.60
2017-09-27T03:24:13.519Z,79.30
2017-09-27T03:25:13.484Z,85.70
2017-09-27T03:26:13.451Z,78.60
2017-09-27T03:27:13.416Z,82.50
2017-09-27T03:28:13.380Z,69.50
2017-09-27T03:29:13.346Z,69.10
2017-09-27T03:30:13.315Z,62.20
2017-09-27T03:31:13.395Z,61.70
2017-09-27T03:32:13.242Z,67.80
2017-09-27T03:33:13.210Z,72.70
2017-09-27T03:34:13.173Z,80.90
2017-09-27T03:35:13.139Z,74.10
2017-09-27T03:36:13.105Z,88.10
2017-09-27T03:37:13.073Z,101.50
2017-09-27T03:38:13.036Z,96.70
2017-09-27T03:39:13.000Z,96.10
2017-09-27T03:40:12.965Z,85.40
2017-09-27T03:41:12.930Z,88.50
2017-09-27T03:42:12.909Z,85.40
2017-09-27T03:43:12.862Z,80.10
2017-09-27T03:44:12.827Z,91.70
2017-09-27T03:45:12.792Z,85.90
2017-09-27T03:46:12.763Z,78.70
2017-09-27T03:47:12.723Z,76.20
2017-09-27T03:48:12.687Z,61.90
2017-09-27T03:49:12.652Z,55.50
2017-09-27T03:50:12.619Z,51.90
2017-09-27T03:51:12.596Z,54.60
2017-09-27T03:52:12.550Z,56.00
2017-09-27T03:53:12.522Z,57.60
2017-09-27T03:54:12.490Z,52.00
2017-09-27T03:55:12.445Z,57.50
2017-09-27T03:56:12.411Z,51.50
2017-09-27T03:57:12.376Z,61.80
2017-09-27T03:58:12.345Z,56.80
2017-09-27T03:59:12.306Z,60.10
2017-09-27T04:00:12.271Z,57.10
2017-09-27T04:01:12.236Z,62.40
2017-09-27T04:02:12.203Z,79.50
2017-09-27T04:03:12.168Z,75.40
2017-09-27T04:04:12.134Z,85.50
2017-09-27T04:05:12.098Z,88.00
2017-09-27T04:06:12.064Z,88.40
2017-09-27T04:07:12.031Z,73.80
2017-09-27T04:08:11.993Z,78.10
2017-09-27T04:09:11.960Z,75.90
2017-09-27T04:10:11.925Z,92.00
2017-09-27T04:11:11.894Z,80.00
2017-09-27T04:12:11.855Z,78.30
2017-09-27T04:13:11.820Z,66.80
2017-09-27T04:14:11.783Z,84.40
2017-09-27T04:15:11.749Z,101.10
2017-09-27T04:16:11.714Z,94.70
2017-09-27T04:17:11.679Z,93.00
2017-09-27T04:18:11.888Z,104.40
2017-09-27T04:19:11.613Z,95.40
2017-09-27T04:20:11.574Z,107.40
2017-09-27T04:21:11.541Z,103.90
2017-09-27T04:22:11.504Z,106.20
2017-09-27T04:23:11.473Z,101.90
2017-09-27T04:24:11.437Z,91.70
2017-09-27T04:25:11.400Z,104.80
2017-09-27T04:26:11.364Z,92.60
2017-09-27T04:27:11.330Z,93.70
2017-09-27T04:28:11.295Z,97.70
2017-09-27T04:29:11.260Z,108.70
2017-09-27T04:30:11.227Z,87.30
2017-09-27T04:31:11.189Z,86.20
2017-09-27T04:32:11.154Z,89.50
2017-09-27T04:33:11.120Z,90.40
2017-09-27T04:34:11.083Z,94.10
2017-09-27T04:35:11.050Z,99.00
2017-09-27T04:36:11.015Z,110.80
2017-09-27T04:37:10.979Z,124.90
2017-09-27T04:38:10.945Z,107.90
2017-09-27T04:39:10.909Z,103.90
2017-09-27T04:40:10.875Z,114.40
2017-09-27T04:41:10.841Z,116.70
2017-09-27T04:42:10.803Z,104.90
2017-09-27T04:43:10.770Z,97.30
2017-09-27T04:44:10.735Z,94.30
2017-09-27T04:45:10.702Z,94.60
2017-09-27T04:46:10.665Z,108.80
2017-09-27T04:47:10.631Z,97.40
2017-09-27T04:48:10.594Z,100.60
2017-09-27T04:49:10.559Z,110.30
2017-09-27T04:50:10.525Z,126.20
2017-09-27T04:51:10.490Z,118.40
2017-09-27T04:52:10.454Z,105.40
2017-09-27T04:53:10.419Z,101.70
2017-09-27T04:54:10.384Z,100.00
2017-09-27T04:55:10.350Z,91.70
2017-09-27T04:56:10.318Z,102.00
2017-09-27T04:57:10.964Z,100.60
2017-09-27T04:58:10.243Z,113.20
2017-09-27T04:59:10.209Z,103.40
2017-09-27T05:00:10.167Z,82.90
2017-09-27T05:01:10.140Z,74.30
2017-09-27T05:02:10.103Z,82.00
2017-09-27T05:03:10.072Z,78.50
2017-09-27T05:04:10.032Z,86.70
2017-09-27T05:05:10.002Z,90.10
2017-09-27T05:06:10.172Z,88.60
2017-09-27T05:07:09.928Z,95.00
2017-09-27T05:08:09.893Z,104.70
2017-09-27T05:09:09.858Z,109.30
2017-09-27T05:10:09.824Z,103.30
2017-09-27T05:11:09.787Z,103.00
2017-09-27T05:12:09.753Z,99.10
2017-09-27T05:13:09.717Z,99.30
2017-09-27T05:14:09.683Z,102.00
2017-09-27T05:15:09.648Z,100.60
2017-09-27T05:16:09.613Z,93.70
2017-09-27T05:17:09.577Z,88.20
2017-09-27T05:18:09.543Z,78.20
2017-09-27T05:19:09.507Z,73.80
2017-09-27T05:20:09.469Z,75.80
2017-09-27T05:21:09.430Z,65.60
2017-09-27T05:22:09.409Z,68.20
2017-09-27T05:23:09.368Z,69.80
2017-09-27T05:24:09.330Z,67.50
2017-09-27T05:25:09.297Z,72.70
2017-09-27T05:26:09.259Z,78.80
2017-09-27T05:27:09.220Z,90.00
2017-09-27T05:28:09.188Z,86.80
2017-09-27T05:29:09.154Z,83.30
2017-09-27T05:30:09.118Z,77.50
2017-09-27T05:31:09.087Z,90.20
2017-09-27T05:32:09.048Z,98.80
2017-09-27T05:33:09.013Z,96.00
2017-09-27T05:34:08.979Z,100.40
2017-09-27T05:35:08.943Z,99.40
2017-09-27T05:36:08.908Z,98.90
2017-09-27T05:37:08.872Z,87.90
2017-09-27T05:38:08.839Z,96.90
2017-09-27T05:39:08.802Z,100.10
2017-09-27T05:40:08.777Z,109.30
2017-09-27T05:41:08.740Z,107.80
2017-09-27T05:43:40.766Z,91.00
2017-09-27T05:44:40.702Z,97.80
2017-09-27T05:46:34.044Z,108.30
2017-09-27T05:47:33.974Z,105.40
2017-09-27T05:49:27.292Z,103.30
2017-09-27T05:50:27.244Z,88.80
2017-09-27T05:52:20.588Z,65.50
2017-09-27T05:53:20.514Z,72.00
2017-09-27T05:54:20.480Z,65.70
2017-09-27T05:55:20.446Z,64.50
2017-09-27T05:56:20.411Z,65.40
2017-09-27T05:57:20.377Z,61.50
2017-09-27T05:58:21.151Z,67.30
2017-09-27T05:59:20.310Z,69.10
2017-09-27T06:00:20.270Z,61.90
2017-09-27T06:01:20.236Z,52.90
2017-09-27T06:02:20.202Z,61.40
2017-09-27T06:03:20.167Z,62.20
2017-09-27T06:04:20.132Z,58.40
2017-09-27T06:05:20.098Z,65.10
2017-09-27T06:06:20.062Z,60.50
2017-09-27T06:07:20.026Z,56.70
2017-09-27T06:08:19.995Z,55.30
2017-09-27T06:09:19.961Z,48.00
2017-09-27T06:10:19.923Z,42.40
2017-09-27T06:11:19.889Z,46.10
2017-09-27T06:12:19.857Z,47.80
2017-09-27T06:13:19.821Z,38.00
2017-09-27T06:14:19.786Z,35.10
2017-09-27T06:15:19.751Z,37.90
2017-09-27T06:16:19.718Z,38.40
2017-09-27T06:17:19.682Z,44.00
2017-09-27T06:18:19.648Z,38.70
2017-09-27T06:19:19.612Z,39.10
2017-09-27T06:20:19.580Z,40.70
2017-09-27T06:21:19.545Z,38.60
2017-09-27T06:22:19.512Z,38.20
2017-09-27T06:23:19.479Z,36.60
2017-09-27T06:24:19.443Z,39.20
2017-09-27T06:25:19.408Z,34.70
2017-09-27T06:26:19.372Z,37.00
2017-09-27T06:27:19.341Z,36.30
2017-09-27T06:28:19.307Z,40.40
2017-09-27T06:29:19.276Z,38.70
2017-09-27T06:30:19.239Z,34.80
2017-09-27T06:31:19.207Z,36.90
2017-09-27T06:32:19.171Z,36.00
2017-09-27T06:33:19.136Z,36.80
2017-09-27T06:34:19.103Z,33.80
2017-09-27T06:35:19.070Z,35.40
2017-09-27T06:36:19.036Z,31.50
2017-09-27T06:37:19.002Z,34.40
2017-09-27T06:38:18.980Z,32.50
2017-09-27T06:39:18.936Z,33.40
2017-09-27T06:40:18.902Z,34.90
2017-09-27T06:41:18.869Z,34.60
2017-09-27T06:42:18.838Z,34.70
2017-09-27T06:43:18.807Z,39.00
2017-09-27T06:44:18.773Z,38.60
2017-09-27T06:45:18.738Z,33.60
2017-09-27T06:46:18.706Z,33.80
2017-09-27T06:47:18.674Z,31.40
2017-09-27T06:48:18.641Z,35.50
2017-09-27T06:49:18.608Z,30.90
2017-09-27T06:50:18.577Z,36.50
2017-09-27T06:51:18.544Z,36.40
2017-09-27T06:52:18.513Z,38.70
2017-09-27T06:53:18.489Z,39.80
2017-09-27T06:54:18.449Z,32.80
2017-09-27T06:55:18.416Z,35.30
2017-09-27T06:56:18.387Z,35.20
2017-09-27T06:57:18.355Z,33.40
2017-09-27T06:58:18.324Z,37.90
2017-09-27T06:59:18.291Z,34.60
2017-09-27T07:00:18.261Z,34.40
2017-09-27T07:01:18.231Z,42.20
2017-09-27T07:02:18.199Z,36.10
2017-09-27T07:03:18.167Z,40.50
2017-09-27T07:04:18.139Z,42.20
2017-09-27T07:05:18.107Z,37.50
2017-09-27T07:06:18.077Z,45.60
2017-09-27T07:07:18.051Z,38.60
2017-09-27T07:08:18.026Z,43.50
2017-09-27T07:09:17.987Z,41.70
2017-09-27T07:10:17.956Z,40.30
2017-09-27T07:11:17.926Z,34.30
2017-09-27T07:12:17.897Z,39.00
2017-09-27T07:13:17.867Z,35.50
2017-09-27T07:14:17.839Z,34.70
2017-09-27T07:15:17.809Z,34.10
2017-09-27T07:16:17.780Z,31.10
2017-09-27T07:17:17.753Z,34.70
2017-09-27T07:18:17.729Z,35.60
2017-09-27T07:19:17.697Z,36.40
2017-09-27T07:20:17.666Z,34.40
2017-09-27T07:21:17.636Z,34.50
2017-09-27T07:22:17.614Z,33.50
2017-09-27T07:23:17.581Z,35.60
2017-09-27T07:24:17.553Z,36.20
2017-09-27T07:25:17.523Z,37.00
2017-09-27T07:26:17.498Z,35.30
2017-09-27T07:27:17.470Z,38.80
2017-09-27T07:28:17.442Z,33.70
2017-09-27T07:29:17.414Z,37.60
2017-09-27T07:30:17.387Z,34.50
2017-09-27T07:31:17.362Z,33.30
2017-09-27T07:32:17.333Z,32.20
2017-09-27T07:33:17.307Z,36.20
2017-09-27T07:34:17.281Z,37.80
2017-09-27T07:35:17.255Z,35.10
2017-09-27T07:36:17.226Z,34.70
2017-09-27T07:37:17.200Z,33.70
2017-09-27T07:38:17.173Z,32.70
2017-09-27T07:39:17.149Z,34.30
2017-09-27T07:40:17.121Z,38.10
2017-09-27T07:41:17.095Z,35.50
2017-09-27T07:42:17.069Z,39.70
2017-09-27T07:43:17.041Z,37.50
2017-09-27T07:44:17.017Z,40.40
2017-09-27T07:45:16.992Z,41.60
2017-09-27T07:46:16.965Z,41.00
2017-09-27T07:47:16.940Z,42.70
2017-09-27T07:48:16.915Z,47.10
2017-09-27T07:49:16.888Z,38.90
2017-09-27T07:50:16.863Z,41.10
2017-09-27T07:51:16.836Z,45.90
2017-09-27T07:52:16.812Z,45.60
2017-09-27T07:53:16.792Z,37.40
2017-09-27T07:54:16.761Z,42.30
2017-09-27T07:55:16.737Z,41.20
2017-09-27T07:56:16.712Z,43.80
2017-09-27T07:57:16.686Z,43.70
2017-09-27T07:58:16.662Z,43.00
2017-09-27T07:59:16.637Z,37.20
2017-09-27T08:00:16.612Z,36.90
2017-09-27T08:01:16.587Z,40.20
2017-09-27T08:02:16.564Z,35.60
2017-09-27T08:03:16.538Z,37.50
2017-09-27T08:04:16.515Z,37.30
2017-09-27T08:05:16.496Z,37.70
2017-09-27T08:06:16.469Z,34.90
2017-09-27T08:07:16.446Z,40.20
2017-09-27T08:08:16.420Z,34.90
2017-09-27T08:09:16.397Z,37.80
2017-09-27T08:10:16.372Z,43.10
2017-09-27T08:11:16.348Z,34.50
2017-09-27T08:12:16.329Z,38.90
2017-09-27T08:13:16.302Z,36.80
2017-09-27T08:14:16.279Z,34.90
2017-09-27T08:15:16.257Z,36.40
2017-09-27T08:16:16.233Z,39.90
2017-09-27T08:17:16.215Z,35.00
2017-09-27T08:18:16.188Z,38.50
2017-09-27T08:19:16.165Z,35.10
2017-09-27T08:20:16.142Z,34.70
2017-09-27T08:21:16.120Z,35.00
2017-09-27T08:22:16.096Z,33.00
2017-09-27T08:23:16.075Z,36.70
2017-09-27T08:24:16.055Z,38.90
2017-09-27T08:25:16.033Z,42.80
2017-09-27T08:26:16.010Z,42.80
2017-09-27T08:27:15.989Z,40.30
2017-09-27T08:28:15.966Z,41.20
2017-09-27T08:29:15.944Z,43.20
2017-09-27T08:30:15.922Z,38.30
2017-09-27T08:31:15.903Z,47.30
2017-09-27T08:32:15.881Z,45.50
2017-09-27T08:33:15.857Z,39.30
2017-09-27T08:34:15.837Z,40.60
2017-09-27T08:35:15.816Z,42.60
2017-09-27T08:36:15.795Z,45.40
2017-09-27T08:37:15.772Z,41.40
2017-09-27T08:38:15.755Z,41.80
2017-09-27T08:39:15.731Z,46.00
2017-09-27T08:40:15.710Z,45.40
2017-09-27T08:41:15.687Z,41.80
2017-09-27T08:42:15.666Z,42.50
2017-09-27T08:43:15.641Z,43.60
2017-09-27T08:44:15.624Z,42.30
2017-09-27T08:45:15.603Z,45.70
2017-09-27T08:46:15.582Z,44.20
2017-09-27T08:47:15.561Z,42.60
2017-09-27T08:48:15.542Z,39.70
2017-09-27T08:49:15.524Z,43.60
2017-09-27T08:50:15.502Z,41.30
2017-09-27T08:51:15.479Z,40.60
2017-09-27T08:52:15.459Z,42.60
2017-09-27T08:53:15.438Z,42.10
2017-09-27T08:54:15.418Z,47.90
2017-09-27T08:55:15.397Z,39.50
2017-09-27T08:56:15.377Z,40.40
2017-09-27T08:57:15.356Z,44.20
2017-09-27T08:58:15.337Z,38.10
2017-09-27T08:59:15.318Z,40.30
2017-09-27T09:00:15.297Z,44.70
2017-09-27T09:01:15.278Z,41.30
2017-09-27T09:02:15.256Z,42.80
2017-09-27T09:03:15.236Z,41.00
2017-09-27T09:04:15.217Z,42.10
2017-09-27T09:05:15.197Z,41.20
2017-09-27T09:06:15.176Z,38.20
2017-09-27T09:07:15.160Z,36.80
2017-09-27T09:08:15.137Z,40.90
2017-09-27T09:09:15.116Z,37.10
2017-09-27T09:10:15.096Z,38.30
2017-09-27T09:11:15.087Z,38.20
2017-09-27T09:12:15.056Z,42.30
2017-09-27T09:13:15.047Z,39.70
2017-09-27T09:14:15.017Z,35.70
2017-09-27T09:15:14.998Z,39.20
2017-09-27T09:16:14.980Z,39.20
2017-09-27T09:17:14.965Z,37.60
2017-09-27T09:18:14.938Z,36.10
2017-09-27T09:19:14.920Z,35.00
2017-09-27T09:20:14.900Z,37.90
2017-09-27T09:21:14.879Z,35.60
2017-09-27T09:22:14.860Z,36.70
2017-09-27T09:23:14.841Z,37.40
2017-09-27T09:24:14.822Z,33.80
2017-09-27T09:25:14.802Z,35.10
2017-09-27T09:26:14.782Z,33.50
2017-09-27T09:27:14.764Z,35.00
2017-09-27T09:28:14.748Z,35.40
2017-09-27T09:29:14.726Z,33.40
2017-09-27T09:30:14.707Z,34.20
2017-09-27T09:31:14.688Z,33.40
2017-09-27T09:32:14.668Z,32.10
2017-09-27T09:33:14.651Z,34.60
2017-09-27T09:34:14.631Z,31.30
2017-09-27T09:35:14.612Z,29.60
2017-09-27T09:36:14.594Z,36.70
2017-09-27T09:37:14.575Z,33.90
2017-09-27T09:38:14.557Z,34.30
2017-09-27T09:39:14.538Z,29.90
2017-09-27T09:40:14.520Z,31.50
2017-09-27T09:41:14.507Z,30.70
2017-09-27T09:42:14.485Z,27.80
2017-09-27T09:43:14.466Z,29.00
2017-09-27T09:44:14.448Z,29.10
2017-09-27T09:45:14.428Z,33.00
2017-09-27T09:46:14.505Z,28.30
2017-09-27T09:47:14.393Z,30.90
2017-09-27T09:48:14.375Z,32.10
2017-09-27T09:49:14.357Z,28.00
2017-09-27T09:50:14.338Z,28.30
2017-09-27T09:51:14.324Z,27.70
2017-09-27T09:52:14.302Z,26.40
2017-09-27T09:53:14.285Z,28.90
2017-09-27T09:54:14.268Z,26.40
2017-09-27T09:55:14.250Z,27.70
2017-09-27T09:56:14.233Z,27.40
2017-09-27T09:57:14.215Z,26.00
2017-09-27T09:58:14.198Z,26.50
2017-09-27T09:59:14.180Z,26.60
2017-09-27T10:00:14.164Z,24.80
2017-09-27T10:01:14.146Z,31.30
2017-09-27T10:02:14.129Z,24.60
2017-09-27T10:03:14.111Z,28.90
2017-09-27T10:04:14.094Z,27.10
2017-09-27T10:05:14.078Z,24.90
2017-09-27T10:06:14.059Z,24.90
2017-09-27T10:07:14.043Z,28.10
2017-09-27T10:08:14.024Z,31.30
2017-09-27T10:09:14.023Z,25.90
2017-09-27T10:10:13.989Z,27.20
2017-09-27T10:11:13.976Z,30.00
2017-09-27T10:12:13.954Z,29.50
2017-09-27T10:13:13.936Z,26.90
2017-09-27T10:14:13.921Z,25.80
2017-09-27T10:15:13.902Z,24.80
2017-09-27T10:16:13.886Z,26.50
2017-09-27T10:17:13.869Z,23.60
2017-09-27T10:18:13.853Z,25.70
2017-09-27T10:19:13.840Z,27.00
2017-09-27T10:20:13.818Z,27.10
2017-09-27T10:21:13.802Z,25.80
2017-09-27T10:22:13.785Z,27.80
2017-09-27T10:23:13.768Z,24.40
2017-09-27T10:24:13.751Z,25.50
2017-09-27T10:25:13.738Z,24.00
2017-09-27T10:26:13.719Z,21.70
2017-09-27T10:27:13.699Z,23.40
2017-09-27T10:28:13.683Z,19.00
2017-09-27T10:29:13.663Z,23.60
2017-09-27T10:30:13.647Z,22.40
2017-09-27T10:31:13.632Z,21.60
2017-09-27T10:32:14.004Z,23.10
2017-09-27T10:33:13.594Z,25.80
2017-09-27T10:34:13.578Z,18.90
2017-09-27T10:35:13.559Z,17.90
2017-09-27T10:36:13.540Z,19.20
2017-09-27T10:37:13.534Z,19.90
2017-09-27T10:38:13.504Z,22.10
2017-09-27T10:39:13.486Z,19.10
2017-09-27T10:40:13.468Z,22.90
2017-09-27T10:41:13.450Z,23.00
2017-09-27T10:42:13.432Z,21.10
2017-09-27T10:43:13.413Z,19.50
2017-09-27T10:44:13.397Z,20.70
2017-09-27T10:45:13.378Z,17.80
2017-09-27T10:46:13.360Z,18.00
2017-09-27T10:47:13.361Z,17.90
2017-09-27T10:48:13.322Z,16.40
2017-09-27T10:49:13.303Z,13.80
2017-09-27T10:50:13.285Z,14.40
2017-09-27T10:51:13.267Z,15.70
2017-09-27T10:52:13.249Z,18.90
2017-09-27T10:53:13.230Z,16.00
2017-09-27T10:54:13.500Z,18.00
2017-09-27T10:55:13.196Z,13.60
2017-09-27T10:56:13.177Z,13.00
2017-09-27T10:57:13.158Z,13.30
2017-09-27T10:58:13.142Z,14.60
2017-09-27T10:59:13.123Z,14.50
2017-09-27T11:00:13.107Z,14.00
2017-09-27T11:01:13.087Z,14.10
2017-09-27T11:02:13.070Z,16.70
2017-09-27T11:03:13.053Z,14.40
2017-09-27T11:04:13.037Z,14.80
2017-09-27T11:05:13.020Z,13.60
2017-09-27T11:06:13.006Z,16.80
2017-09-27T11:07:12.979Z,14.00
2017-09-27T11:08:12.973Z,15.30
2017-09-27T11:09:12.953Z,11.50
2017-09-27T11:10:12.935Z,12.90
2017-09-27T11:11:12.920Z,10.40
2017-09-27T11:12:12.904Z,11.00
2017-09-27T11:13:12.885Z,12.10
2017-09-27T11:14:12.871Z,11.70
2017-09-27T11:15:12.856Z,12.00
2017-09-27T11:16:12.839Z,10.40
2017-09-27T11:17:12.823Z,8.90
2017-09-27T11:18:12.807Z,11.90
2017-09-27T11:19:12.797Z,10.00
2017-09-27T11:20:12.775Z,11.50
2017-09-27T11:21:12.761Z,11.40
2017-09-27T11:22:12.744Z,12.50
2017-09-27T11:23:12.729Z,12.00
2017-09-27T11:24:12.713Z,12.00
2017-09-27T11:25:12.698Z,11.40
2017-09-27T11:26:12.682Z,14.50
2017-09-27T11:27:12.667Z,10.40
2017-09-27T11:28:12.653Z,9.70
2017-09-27T11:29:12.636Z,9.10
2017-09-27T11:30:12.621Z,8.20
2017-09-27T11:31:12.606Z,11.40
2017-09-27T11:32:12.590Z,11.30
2017-09-27T11:33:12.574Z,12.80
2017-09-27T11:34:12.565Z,11.80
2017-09-27T11:35:12.995Z,14.20
2017-09-27T11:36:12.529Z,14.50
2017-09-27T11:37:12.513Z,13.80
2017-09-27T11:38:12.498Z,13.80
2017-09-27T11:39:12.483Z,11.60
2017-09-27T11:40:12.468Z,10.20
2017-09-27T11:41:12.453Z,8.90
2017-09-27T11:42:13.525Z,10.50
2017-09-27T11:43:12.421Z,10.50
2017-09-27T11:44:12.407Z,8.50
2017-09-27T11:45:12.389Z,9.90
2017-09-27T11:46:12.375Z,11.40
2017-09-27T11:47:12.361Z,10.10
2017-09-27T11:48:12.346Z,9.80
2017-09-27T11:49:12.334Z,8.80
2017-09-27T11:50:12.314Z,7.30
2017-09-27T11:51:12.300Z,10.00
2017-09-27T11:52:12.285Z,8.50
2017-09-27T11:53:12.271Z,6.80
2017-09-27T11:54:12.646Z,8.70
2017-09-27T11:55:12.243Z,7.70
2017-09-27T11:56:12.227Z,8.50
2017-09-27T11:57:12.212Z,11.60
2017-09-27T11:58:12.200Z,7.90
2017-09-27T11:59:12.184Z,6.10
2017-09-27T12:00:12.171Z,6.30
2017-09-27T12:01:12.157Z,6.90
2017-09-27T12:02:12.151Z,7.20
2017-09-27T12:03:12.126Z,7.00
2017-09-27T12:04:12.113Z,6.80
2017-09-27T12:05:12.097Z,7.50
2017-09-27T12:06:12.083Z,9.60
2017-09-27T12:07:12.075Z,8.00
2017-09-27T12:08:12.056Z,6.80
2017-09-27T12:09:12.050Z,8.30
2017-09-27T12:10:12.029Z,5.70
2017-09-27T12:11:12.014Z,5.40
2017-09-27T12:12:12.001Z,6.40
2017-09-27T12:13:11.986Z,4.80
2017-09-27T12:14:12.038Z,4.10
2017-09-27T12:15:11.964Z,4.30
2017-09-27T12:16:12.122Z,6.50
2017-09-27T12:17:11.930Z,6.10
2017-09-27T12:18:11.916Z,9.40
2017-09-27T12:19:11.908Z,11.40
2017-09-27T12:20:11.886Z,8.30
2017-09-27T12:21:11.874Z,7.30
2017-09-27T12:22:11.862Z,10.40
2017-09-27T12:23:12.419Z,9.50
2017-09-27T12:24:11.835Z,10.20
2017-09-27T12:25:11.820Z,10.10
2017-09-27T12:26:11.806Z,8.80
2017-09-27T12:27:11.792Z,8.70
2017-09-27T12:28:11.779Z,7.10
2017-09-27T12:29:11.765Z,7.90
2017-09-27T12:30:11.763Z,7.80
2017-09-27T12:31:11.737Z,8.20
2017-09-27T12:32:11.724Z,7.00
2017-09-27T12:33:11.708Z,10.00
2017-09-27T12:34:11.694Z,9.00
2017-09-27T12:35:11.678Z,11.40
2017-09-27T12:36:11.664Z,10.70
2017-09-27T12:37:11.740Z,8.80
2017-09-27T12:38:11.633Z,14.60
2017-09-27T12:39:11.620Z,12.30
2017-09-27T12:40:11.605Z,12.70
2017-09-27T12:41:11.590Z,7.90
2017-09-27T12:42:11.576Z,9.40
2017-09-27T12:43:11.562Z,12.60
2017-09-27T12:44:11.549Z,11.30
2017-09-27T12:45:11.533Z,11.30
2017-09-27T12:46:11.519Z,12.10
2017-09-27T12:47:11.504Z,10.40
2017-09-27T12:48:11.491Z,9.80
2017-09-27T12:49:11.476Z,11.50
2017-09-27T12:50:11.463Z,11.80
2017-09-27T12:51:11.448Z,12.30
2017-09-27T12:52:11.435Z,10.20
2017-09-27T12:53:11.419Z,11.50
2017-09-27T12:54:11.406Z,12.40
2017-09-27T12:55:11.390Z,10.20
2017-09-27T12:56:11.380Z,13.10